sensor_id;sensor_type;location;lat;lon;timestamp;P1;durP1;ratioP1;P2;durP2;ratioP2
15616;SDS011;7908;51.688;7.130;2023-03-11T00:01:56;5.83;;;3.83;;
15616;SDS011;7908;51.688;7.130;2023-03-11T00:04:25;4.87;;;4.00;;
15616;SDS011;7908;51.688;7.130;2023-03-11T00:06:55;7.27;;;4.23;;
15616;SDS011;7908;51.688;7.130;2023-03-11T00:09:24;4.90;;;3.30;;
15616;SDS011;7908;51.688;7.130;2023-03-11T00:11:53;7.47;;;3.83;;
15616;SDS011;7908;51.688;7.130;2023-03-11T00:14:22;6.03;;;3.50;;
15616;SDS011;7908;51.688;7.130;2023-03-11T00:16:51;6.00;;;4.23;;
15616;SDS011;7908;51.688;7.130;2023-03-11T00:19:22;6.17;;;4.20;;
15616;SDS011;7908;51.688;7.130;2023-03-11T00:21:51;7.03;;;5.03;;
15616;SDS011;7908;51.688;7.130;2023-03-11T00:24:22;5.40;;;4.03;;
15616;SDS011;7908;51.688;7.130;2023-03-11T00:26:50;8.23;;;5.07;;
15616;SDS011;7908;51.688;7.130;2023-03-11T00:29:19;8.07;;;5.03;;
15616;SDS011;7908;51.688;7.130;2023-03-11T00:31:49;7.27;;;4.60;;
15616;SDS011;7908;51.688;7.130;2023-03-11T00:34:18;7.37;;;4.37;;
15616;SDS011;7908;51.688;7.130;2023-03-11T00:36:47;7.53;;;4.33;;
15616;SDS011;7908;51.688;7.130;2023-03-11T00:39:16;6.93;;;4.60;;
15616;SDS011;7908;51.688;7.130;2023-03-11T00:41:47;6.60;;;4.00;;
15616;SDS011;7908;51.688;7.130;2023-03-11T00:44:16;7.97;;;4.47;;
15616;SDS011;7908;51.688;7.130;2023-03-11T00:46:45;8.47;;;3.93;;
15616;SDS011;7908;51.688;7.130;2023-03-11T00:49:13;7.40;;;4.40;;
15616;SDS011;7908;51.688;7.130;2023-03-11T00:51:42;7.50;;;4.87;;
15616;SDS011;7908;51.688;7.130;2023-03-11T00:54:11;9.40;;;5.10;;
15616;SDS011;7908;51.688;7.130;2023-03-11T00:56:40;9.17;;;4.07;;
15616;SDS011;7908;51.688;7.130;2023-03-11T00:59:10;6.67;;;4.63;;
15616;SDS011;7908;51.688;7.130;2023-03-11T01:01:38;10.33;;;3.97;;
15616;SDS011;7908;51.688;7.130;2023-03-11T01:04:07;7.27;;;4.10;;
15616;SDS011;7908;51.688;7.130;2023-03-11T01:06:36;7.43;;;4.47;;
15616;SDS011;7908;51.688;7.130;2023-03-11T01:09:11;8.00;;;3.70;;
15616;SDS011;7908;51.688;7.130;2023-03-11T01:11:40;8.73;;;3.60;;
15616;SDS011;7908;51.688;7.130;2023-03-11T01:14:10;5.47;;;3.30;;
15616;SDS011;7908;51.688;7.130;2023-03-11T01:16:38;6.57;;;4.10;;
15616;SDS011;7908;51.688;7.130;2023-03-11T01:19:07;6.80;;;4.40;;
15616;SDS011;7908;51.688;7.130;2023-03-11T01:21:36;7.97;;;4.10;;
15616;SDS011;7908;51.688;7.130;2023-03-11T01:24:04;5.10;;;3.40;;
15616;SDS011;7908;51.688;7.130;2023-03-11T01:26:34;5.60;;;3.27;;
15616;SDS011;7908;51.688;7.130;2023-03-11T01:29:02;5.50;;;2.80;;
15616;SDS011;7908;51.688;7.130;2023-03-11T01:31:32;7.40;;;3.27;;
15616;SDS011;7908;51.688;7.130;2023-03-11T01:34:02;6.00;;;3.10;;
15616;SDS011;7908;51.688;7.130;2023-03-11T01:36:30;7.93;;;3.20;;
15616;SDS011;7908;51.688;7.130;2023-03-11T01:38:59;12.50;;;4.17;;
15616;SDS011;7908;51.688;7.130;2023-03-11T01:41:28;6.10;;;3.50;;
15616;SDS011;7908;51.688;7.130;2023-03-11T01:43:56;6.50;;;3.10;;
15616;SDS011;7908;51.688;7.130;2023-03-11T01:46:26;6.17;;;2.73;;
15616;SDS011;7908;51.688;7.130;2023-03-11T01:48:58;9.17;;;3.17;;
15616;SDS011;7908;51.688;7.130;2023-03-11T01:51:28;5.57;;;3.53;;
15616;SDS011;7908;51.688;7.130;2023-03-11T01:53:59;8.27;;;3.80;;
15616;SDS011;7908;51.688;7.130;2023-03-11T01:56:30;7.47;;;3.67;;
15616;SDS011;7908;51.688;7.130;2023-03-11T01:59:00;6.37;;;3.50;;
15616;SDS011;7908;51.688;7.130;2023-03-11T02:01:29;7.10;;;3.73;;
15616;SDS011;7908;51.688;7.130;2023-03-11T02:03:59;6.93;;;3.67;;
15616;SDS011;7908;51.688;7.130;2023-03-11T02:06:30;7.20;;;3.10;;
15616;SDS011;7908;51.688;7.130;2023-03-11T02:09:00;4.17;;;2.80;;
15616;SDS011;7908;51.688;7.130;2023-03-11T02:11:28;5.47;;;2.90;;
15616;SDS011;7908;51.688;7.130;2023-03-11T02:13:59;6.33;;;2.93;;
15616;SDS011;7908;51.688;7.130;2023-03-11T02:16:29;4.20;;;2.53;;
15616;SDS011;7908;51.688;7.130;2023-03-11T02:19:08;5.17;;;3.03;;
15616;SDS011;7908;51.688;7.130;2023-03-11T02:21:54;5.07;;;3.10;;
15616;SDS011;7908;51.688;7.130;2023-03-11T02:24:24;8.30;;;3.00;;
15616;SDS011;7908;51.688;7.130;2023-03-11T02:27:06;5.40;;;2.57;;
15616;SDS011;7908;51.688;7.130;2023-03-11T02:29:36;6.57;;;2.50;;
15616;SDS011;7908;51.688;7.130;2023-03-11T02:32:06;6.17;;;2.13;;
15616;SDS011;7908;51.688;7.130;2023-03-11T02:34:37;7.80;;;2.20;;
15616;SDS011;7908;51.688;7.130;2023-03-11T02:37:07;6.07;;;2.20;;
15616;SDS011;7908;51.688;7.130;2023-03-11T02:39:37;6.93;;;2.60;;
15616;SDS011;7908;51.688;7.130;2023-03-11T02:42:11;8.90;;;2.60;;
15616;SDS011;7908;51.688;7.130;2023-03-11T02:44:43;4.93;;;2.40;;
15616;SDS011;7908;51.688;7.130;2023-03-11T02:47:13;9.87;;;2.53;;
15616;SDS011;7908;51.688;7.130;2023-03-11T02:49:43;3.80;;;1.90;;
15616;SDS011;7908;51.688;7.130;2023-03-11T02:52:12;7.97;;;1.90;;
15616;SDS011;7908;51.688;7.130;2023-03-11T02:54:41;7.87;;;2.73;;
15616;SDS011;7908;51.688;7.130;2023-03-11T02:57:11;9.73;;;2.70;;
15616;SDS011;7908;51.688;7.130;2023-03-11T02:59:39;14.87;;;3.67;;
15616;SDS011;7908;51.688;7.130;2023-03-11T03:02:08;14.43;;;3.50;;
15616;SDS011;7908;51.688;7.130;2023-03-11T03:04:36;11.93;;;3.33;;
15616;SDS011;7908;51.688;7.130;2023-03-11T03:07:05;7.63;;;2.87;;
15616;SDS011;7908;51.688;7.130;2023-03-11T03:09:34;9.63;;;3.27;;
15616;SDS011;7908;51.688;7.130;2023-03-11T03:12:03;7.27;;;2.60;;
15616;SDS011;7908;51.688;7.130;2023-03-11T03:14:34;8.27;;;3.13;;
15616;SDS011;7908;51.688;7.130;2023-03-11T03:17:03;9.07;;;3.40;;
15616;SDS011;7908;51.688;7.130;2023-03-11T03:19:32;7.27;;;2.77;;
15616;SDS011;7908;51.688;7.130;2023-03-11T03:22:00;9.07;;;3.77;;
15616;SDS011;7908;51.688;7.130;2023-03-11T03:24:29;11.57;;;3.17;;
15616;SDS011;7908;51.688;7.130;2023-03-11T03:26:57;15.00;;;3.87;;
15616;SDS011;7908;51.688;7.130;2023-03-11T03:29:26;12.97;;;3.77;;
15616;SDS011;7908;51.688;7.130;2023-03-11T03:31:56;8.77;;;3.43;;
15616;SDS011;7908;51.688;7.130;2023-03-11T03:34:25;10.13;;;3.57;;
15616;SDS011;7908;51.688;7.130;2023-03-11T03:36:53;10.60;;;3.40;;
15616;SDS011;7908;51.688;7.130;2023-03-11T03:39:22;12.70;;;3.57;;
15616;SDS011;7908;51.688;7.130;2023-03-11T03:41:50;8.00;;;2.83;;
15616;SDS011;7908;51.688;7.130;2023-03-11T03:44:19;9.00;;;3.67;;
15616;SDS011;7908;51.688;7.130;2023-03-11T03:46:49;9.40;;;2.90;;
15616;SDS011;7908;51.688;7.130;2023-03-11T03:49:19;9.43;;;3.10;;
15616;SDS011;7908;51.688;7.130;2023-03-11T03:51:47;8.30;;;2.57;;
15616;SDS011;7908;51.688;7.130;2023-03-11T03:54:16;12.03;;;3.43;;
15616;SDS011;7908;51.688;7.130;2023-03-11T03:56:45;7.13;;;2.87;;
15616;SDS011;7908;51.688;7.130;2023-03-11T03:59:13;9.57;;;3.97;;
15616;SDS011;7908;51.688;7.130;2023-03-11T04:01:42;6.33;;;2.67;;
15616;SDS011;7908;51.688;7.130;2023-03-11T04:04:11;9.43;;;3.30;;
15616;SDS011;7908;51.688;7.130;2023-03-11T04:06:41;8.77;;;2.83;;
15616;SDS011;7908;51.688;7.130;2023-03-11T04:09:10;7.17;;;2.50;;
15616;SDS011;7908;51.688;7.130;2023-03-11T04:11:38;11.70;;;3.33;;
15616;SDS011;7908;51.688;7.130;2023-03-11T04:14:07;9.20;;;3.07;;
15616;SDS011;7908;51.688;7.130;2023-03-11T04:16:36;8.67;;;2.90;;
15616;SDS011;7908;51.688;7.130;2023-03-11T04:19:04;13.07;;;2.77;;
15616;SDS011;7908;51.688;7.130;2023-03-11T04:21:33;11.30;;;3.03;;
15616;SDS011;7908;51.688;7.130;2023-03-11T04:24:03;10.07;;;2.87;;
15616;SDS011;7908;51.688;7.130;2023-03-11T04:26:32;8.20;;;3.00;;
15616;SDS011;7908;51.688;7.130;2023-03-11T04:29:01;8.43;;;2.90;;
15616;SDS011;7908;51.688;7.130;2023-03-11T04:31:30;10.03;;;2.87;;
15616;SDS011;7908;51.688;7.130;2023-03-11T04:33:59;12.20;;;3.47;;
15616;SDS011;7908;51.688;7.130;2023-03-11T04:36:27;9.03;;;2.90;;
15616;SDS011;7908;51.688;7.130;2023-03-11T04:38:56;7.87;;;2.90;;
15616;SDS011;7908;51.688;7.130;2023-03-11T04:41:26;10.47;;;2.70;;
15616;SDS011;7908;51.688;7.130;2023-03-11T04:43:55;10.57;;;3.20;;
15616;SDS011;7908;51.688;7.130;2023-03-11T04:46:25;6.57;;;2.33;;
15616;SDS011;7908;51.688;7.130;2023-03-11T04:48:54;8.07;;;2.50;;
15616;SDS011;7908;51.688;7.130;2023-03-11T04:51:23;13.37;;;3.83;;
15616;SDS011;7908;51.688;7.130;2023-03-11T04:53:52;10.17;;;3.20;;
15616;SDS011;7908;51.688;7.130;2023-03-11T04:56:21;6.93;;;2.47;;
15616;SDS011;7908;51.688;7.130;2023-03-11T04:58:51;7.83;;;2.77;;
15616;SDS011;7908;51.688;7.130;2023-03-11T05:01:20;5.00;;;2.63;;
15616;SDS011;7908;51.688;7.130;2023-03-11T05:03:48;8.50;;;2.27;;
15616;SDS011;7908;51.688;7.130;2023-03-11T05:06:17;7.50;;;2.70;;
15616;SDS011;7908;51.688;7.130;2023-03-11T05:08:47;14.43;;;2.70;;
15616;SDS011;7908;51.688;7.130;2023-03-11T05:11:16;6.30;;;2.20;;
15616;SDS011;7908;51.688;7.130;2023-03-11T05:13:45;9.53;;;2.97;;
15616;SDS011;7908;51.688;7.130;2023-03-11T05:16:15;6.80;;;2.37;;
15616;SDS011;7908;51.688;7.130;2023-03-11T05:18:43;10.97;;;2.90;;
15616;SDS011;7908;51.688;7.130;2023-03-11T05:21:12;12.40;;;3.57;;
15616;SDS011;7908;51.688;7.130;2023-03-11T05:23:41;11.47;;;2.80;;
15616;SDS011;7908;51.688;7.130;2023-03-11T05:26:10;8.53;;;3.00;;
15616;SDS011;7908;51.688;7.130;2023-03-11T05:28:38;6.13;;;2.30;;
15616;SDS011;7908;51.688;7.130;2023-03-11T05:31:07;5.90;;;2.03;;
15616;SDS011;7908;51.688;7.130;2023-03-11T05:33:38;7.63;;;2.60;;
15616;SDS011;7908;51.688;7.130;2023-03-11T05:36:07;8.53;;;3.50;;
15616;SDS011;7908;51.688;7.130;2023-03-11T05:38:37;12.43;;;2.70;;
15616;SDS011;7908;51.688;7.130;2023-03-11T05:41:05;12.53;;;2.40;;
15616;SDS011;7908;51.688;7.130;2023-03-11T05:43:34;8.43;;;2.57;;
15616;SDS011;7908;51.688;7.130;2023-03-11T05:46:03;10.17;;;2.60;;
15616;SDS011;7908;51.688;7.130;2023-03-11T05:48:32;10.27;;;2.73;;
15616;SDS011;7908;51.688;7.130;2023-03-11T05:51:06;10.33;;;3.00;;
15616;SDS011;7908;51.688;7.130;2023-03-11T05:53:35;10.80;;;2.63;;
15616;SDS011;7908;51.688;7.130;2023-03-11T05:56:04;5.40;;;2.10;;
15616;SDS011;7908;51.688;7.130;2023-03-11T05:58:33;10.10;;;2.47;;
15616;SDS011;7908;51.688;7.130;2023-03-11T06:01:06;8.20;;;2.43;;
15616;SDS011;7908;51.688;7.130;2023-03-11T06:03:35;7.53;;;2.27;;
15616;SDS011;7908;51.688;7.130;2023-03-11T06:06:06;6.93;;;1.93;;
15616;SDS011;7908;51.688;7.130;2023-03-11T06:08:36;9.07;;;1.83;;
15616;SDS011;7908;51.688;7.130;2023-03-11T06:11:08;5.00;;;1.67;;
15616;SDS011;7908;51.688;7.130;2023-03-11T06:13:37;8.27;;;1.93;;
15616;SDS011;7908;51.688;7.130;2023-03-11T06:16:06;14.83;;;2.23;;
15616;SDS011;7908;51.688;7.130;2023-03-11T06:18:35;13.27;;;1.90;;
15616;SDS011;7908;51.688;7.130;2023-03-11T06:21:04;11.40;;;2.50;;
15616;SDS011;7908;51.688;7.130;2023-03-11T06:23:36;6.43;;;2.27;;
15616;SDS011;7908;51.688;7.130;2023-03-11T06:26:06;11.97;;;2.10;;
15616;SDS011;7908;51.688;7.130;2023-03-11T06:28:35;15.10;;;2.57;;
15616;SDS011;7908;51.688;7.130;2023-03-11T06:31:06;7.17;;;2.33;;
15616;SDS011;7908;51.688;7.130;2023-03-11T06:33:35;5.37;;;2.27;;
15616;SDS011;7908;51.688;7.130;2023-03-11T06:36:06;10.77;;;2.00;;
15616;SDS011;7908;51.688;7.130;2023-03-11T06:38:35;9.43;;;2.40;;
15616;SDS011;7908;51.688;7.130;2023-03-11T06:41:04;6.37;;;2.40;;
15616;SDS011;7908;51.688;7.130;2023-03-11T06:43:34;9.20;;;2.60;;
15616;SDS011;7908;51.688;7.130;2023-03-11T06:46:07;5.07;;;2.30;;
15616;SDS011;7908;51.688;7.130;2023-03-11T06:48:37;7.47;;;2.30;;
15616;SDS011;7908;51.688;7.130;2023-03-11T06:51:08;7.57;;;2.93;;
15616;SDS011;7908;51.688;7.130;2023-03-11T06:53:38;9.00;;;3.17;;
15616;SDS011;7908;51.688;7.130;2023-03-11T06:56:07;13.77;;;3.27;;
15616;SDS011;7908;51.688;7.130;2023-03-11T06:58:38;9.17;;;2.83;;
15616;SDS011;7908;51.688;7.130;2023-03-11T07:01:09;9.47;;;3.20;;
15616;SDS011;7908;51.688;7.130;2023-03-11T07:03:39;15.67;;;4.10;;
15616;SDS011;7908;51.688;7.130;2023-03-11T07:06:11;8.47;;;3.97;;
15616;SDS011;7908;51.688;7.130;2023-03-11T07:08:41;13.03;;;4.90;;
15616;SDS011;7908;51.688;7.130;2023-03-11T07:11:11;17.33;;;4.60;;
15616;SDS011;7908;51.688;7.130;2023-03-11T07:13:41;9.90;;;4.80;;
15616;SDS011;7908;51.688;7.130;2023-03-11T07:16:11;12.70;;;5.33;;
15616;SDS011;7908;51.688;7.130;2023-03-11T07:18:42;7.23;;;3.97;;
15616;SDS011;7908;51.688;7.130;2023-03-11T07:21:14;8.00;;;3.87;;
15616;SDS011;7908;51.688;7.130;2023-03-11T07:23:44;10.77;;;4.10;;
15616;SDS011;7908;51.688;7.130;2023-03-11T07:26:14;10.97;;;4.87;;
15616;SDS011;7908;51.688;7.130;2023-03-11T07:28:44;9.07;;;4.03;;
15616;SDS011;7908;51.688;7.130;2023-03-11T07:31:15;5.50;;;3.27;;
15616;SDS011;7908;51.688;7.130;2023-03-11T07:33:46;12.97;;;4.73;;
15616;SDS011;7908;51.688;7.130;2023-03-11T07:36:17;13.97;;;5.00;;
15616;SDS011;7908;51.688;7.130;2023-03-11T07:38:47;8.93;;;4.20;;
15616;SDS011;7908;51.688;7.130;2023-03-11T07:41:16;10.50;;;3.80;;
15616;SDS011;7908;51.688;7.130;2023-03-11T07:43:45;9.00;;;4.07;;
15616;SDS011;7908;51.688;7.130;2023-03-11T07:46:15;10.47;;;3.23;;
15616;SDS011;7908;51.688;7.130;2023-03-11T07:48:45;15.93;;;3.50;;
15616;SDS011;7908;51.688;7.130;2023-03-11T07:51:14;9.10;;;3.87;;
15616;SDS011;7908;51.688;7.130;2023-03-11T07:53:45;8.50;;;3.67;;
15616;SDS011;7908;51.688;7.130;2023-03-11T07:56:15;8.80;;;2.80;;
15616;SDS011;7908;51.688;7.130;2023-03-11T07:58:44;6.00;;;3.47;;
15616;SDS011;7908;51.688;7.130;2023-03-11T08:01:14;11.03;;;3.23;;
15616;SDS011;7908;51.688;7.130;2023-03-11T08:03:45;11.83;;;3.37;;
15616;SDS011;7908;51.688;7.130;2023-03-11T08:06:19;13.67;;;4.33;;
15616;SDS011;7908;51.688;7.130;2023-03-11T08:08:49;7.30;;;2.83;;
15616;SDS011;7908;51.688;7.130;2023-03-11T08:11:18;13.00;;;3.73;;
15616;SDS011;7908;51.688;7.130;2023-03-11T08:13:47;8.30;;;3.57;;
15616;SDS011;7908;51.688;7.130;2023-03-11T08:16:17;10.90;;;3.63;;
15616;SDS011;7908;51.688;7.130;2023-03-11T08:18:48;11.50;;;3.60;;
15616;SDS011;7908;51.688;7.130;2023-03-11T08:21:20;7.30;;;3.27;;
15616;SDS011;7908;51.688;7.130;2023-03-11T08:23:49;11.50;;;3.33;;
15616;SDS011;7908;51.688;7.130;2023-03-11T08:26:19;9.77;;;3.87;;
15616;SDS011;7908;51.688;7.130;2023-03-11T08:28:48;8.57;;;2.93;;
15616;SDS011;7908;51.688;7.130;2023-03-11T08:31:18;14.37;;;2.87;;
15616;SDS011;7908;51.688;7.130;2023-03-11T08:33:50;7.63;;;2.77;;
15616;SDS011;7908;51.688;7.130;2023-03-11T08:36:22;8.97;;;3.13;;
15616;SDS011;7908;51.688;7.130;2023-03-11T08:38:51;6.37;;;2.47;;
15616;SDS011;7908;51.688;7.130;2023-03-11T08:41:22;10.20;;;2.63;;
15616;SDS011;7908;51.688;7.130;2023-03-11T08:43:51;8.07;;;2.60;;
15616;SDS011;7908;51.688;7.130;2023-03-11T08:46:20;7.07;;;2.90;;
15616;SDS011;7908;51.688;7.130;2023-03-11T08:48:51;9.00;;;3.00;;
15616;SDS011;7908;51.688;7.130;2023-03-11T08:51:22;8.80;;;2.40;;
15616;SDS011;7908;51.688;7.130;2023-03-11T08:53:52;9.50;;;2.60;;
15616;SDS011;7908;51.688;7.130;2023-03-11T08:56:21;5.60;;;2.40;;
15616;SDS011;7908;51.688;7.130;2023-03-11T08:58:50;7.63;;;2.27;;
15616;SDS011;7908;51.688;7.130;2023-03-11T09:01:19;8.53;;;2.67;;
15616;SDS011;7908;51.688;7.130;2023-03-11T09:03:48;5.63;;;1.90;;
15616;SDS011;7908;51.688;7.130;2023-03-11T09:06:17;8.13;;;2.43;;
15616;SDS011;7908;51.688;7.130;2023-03-11T09:08:47;5.33;;;2.50;;
15616;SDS011;7908;51.688;7.130;2023-03-11T09:11:17;4.07;;;1.67;;
15616;SDS011;7908;51.688;7.130;2023-03-11T09:13:48;4.40;;;1.97;;
15616;SDS011;7908;51.688;7.130;2023-03-11T09:16:17;6.10;;;1.80;;
15616;SDS011;7908;51.688;7.130;2023-03-11T09:18:48;6.27;;;1.80;;
15616;SDS011;7908;51.688;7.130;2023-03-11T09:21:17;5.70;;;2.00;;
15616;SDS011;7908;51.688;7.130;2023-03-11T09:23:48;2.97;;;1.50;;
15616;SDS011;7908;51.688;7.130;2023-03-11T09:26:17;9.03;;;1.93;;
15616;SDS011;7908;51.688;7.130;2023-03-11T09:28:47;4.73;;;1.93;;
15616;SDS011;7908;51.688;7.130;2023-03-11T09:31:15;6.90;;;1.83;;
15616;SDS011;7908;51.688;7.130;2023-03-11T09:33:47;6.17;;;1.50;;
15616;SDS011;7908;51.688;7.130;2023-03-11T09:36:19;7.13;;;1.47;;
15616;SDS011;7908;51.688;7.130;2023-03-11T09:38:49;6.23;;;1.37;;
15616;SDS011;7908;51.688;7.130;2023-03-11T09:41:21;5.70;;;1.70;;
15616;SDS011;7908;51.688;7.130;2023-03-11T09:43:59;8.00;;;1.87;;
15616;SDS011;7908;51.688;7.130;2023-03-11T09:46:49;8.70;;;1.60;;
15616;SDS011;7908;51.688;7.130;2023-03-11T09:49:41;3.40;;;1.33;;
15616;SDS011;7908;51.688;7.130;2023-03-11T09:52:29;8.33;;;1.70;;
15616;SDS011;7908;51.688;7.130;2023-03-11T09:55:09;5.17;;;1.00;;
15616;SDS011;7908;51.688;7.130;2023-03-11T09:58:16;5.03;;;1.07;;
15616;SDS011;7908;51.688;7.130;2023-03-11T10:00:49;2.63;;;0.80;;
15616;SDS011;7908;51.688;7.130;2023-03-11T10:03:23;3.17;;;0.80;;
15616;SDS011;7908;51.688;7.130;2023-03-11T10:05:57;4.37;;;1.27;;
15616;SDS011;7908;51.688;7.130;2023-03-11T10:08:37;3.47;;;0.80;;
15616;SDS011;7908;51.688;7.130;2023-03-11T10:11:25;2.10;;;0.77;;
15616;SDS011;7908;51.688;7.130;2023-03-11T10:14:14;5.10;;;0.93;;
15616;SDS011;7908;51.688;7.130;2023-03-11T10:17:04;2.80;;;1.17;;
15616;SDS011;7908;51.688;7.130;2023-03-11T10:19:41;8.30;;;1.07;;
15616;SDS011;7908;51.688;7.130;2023-03-11T10:22:18;8.10;;;1.07;;
15616;SDS011;7908;51.688;7.130;2023-03-11T10:24:59;4.73;;;1.10;;
15616;SDS011;7908;51.688;7.130;2023-03-11T10:27:36;5.03;;;0.80;;
15616;SDS011;7908;51.688;7.130;2023-03-11T10:30:12;4.40;;;0.83;;
15616;SDS011;7908;51.688;7.130;2023-03-11T10:32:51;7.40;;;0.83;;
15616;SDS011;7908;51.688;7.130;2023-03-11T10:35:27;3.33;;;0.70;;
15616;SDS011;7908;51.688;7.130;2023-03-11T10:38:02;7.43;;;1.00;;
15616;SDS011;7908;51.688;7.130;2023-03-11T10:40:39;7.60;;;1.10;;
15616;SDS011;7908;51.688;7.130;2023-03-11T10:43:12;1.90;;;0.57;;
15616;SDS011;7908;51.688;7.130;2023-03-11T10:45:46;3.63;;;0.90;;
15616;SDS011;7908;51.688;7.130;2023-03-11T10:48:17;3.50;;;0.77;;
15616;SDS011;7908;51.688;7.130;2023-03-11T10:50:49;6.07;;;1.03;;
15616;SDS011;7908;51.688;7.130;2023-03-11T10:53:25;5.20;;;0.80;;
15616;SDS011;7908;51.688;7.130;2023-03-11T10:55:54;3.07;;;0.77;;
15616;SDS011;7908;51.688;7.130;2023-03-11T10:58:28;2.67;;;0.87;;
15616;SDS011;7908;51.688;7.130;2023-03-11T11:01:02;3.73;;;1.00;;
15616;SDS011;7908;51.688;7.130;2023-03-11T11:03:34;3.10;;;0.70;;
15616;SDS011;7908;51.688;7.130;2023-03-11T11:06:17;3.53;;;0.70;;
15616;SDS011;7908;51.688;7.130;2023-03-11T11:08:51;3.10;;;0.97;;
15616;SDS011;7908;51.688;7.130;2023-03-11T11:11:32;3.97;;;1.07;;
15616;SDS011;7908;51.688;7.130;2023-03-11T11:14:04;4.07;;;0.73;;
15616;SDS011;7908;51.688;7.130;2023-03-11T11:16:40;5.10;;;0.60;;
15616;SDS011;7908;51.688;7.130;2023-03-11T11:19:12;3.23;;;0.70;;
15616;SDS011;7908;51.688;7.130;2023-03-11T11:21:44;2.73;;;0.90;;
15616;SDS011;7908;51.688;7.130;2023-03-11T11:24:17;4.10;;;1.33;;
15616;SDS011;7908;51.688;7.130;2023-03-11T11:29:43;4.27;;;0.83;;
15616;SDS011;7908;51.688;7.130;2023-03-11T11:32:17;5.67;;;1.07;;
15616;SDS011;7908;51.688;7.130;2023-03-11T11:34:55;3.27;;;0.73;;
15616;SDS011;7908;51.688;7.130;2023-03-11T11:37:26;3.47;;;1.00;;
15616;SDS011;7908;51.688;7.130;2023-03-11T11:39:59;4.40;;;0.60;;
15616;SDS011;7908;51.688;7.130;2023-03-11T11:42:37;2.33;;;0.90;;
15616;SDS011;7908;51.688;7.130;2023-03-11T11:45:12;4.60;;;0.97;;
15616;SDS011;7908;51.688;7.130;2023-03-11T11:47:46;2.07;;;0.70;;
15616;SDS011;7908;51.688;7.130;2023-03-11T11:50:22;2.83;;;0.63;;
15616;SDS011;7908;51.688;7.130;2023-03-11T11:52:57;4.17;;;0.67;;
15616;SDS011;7908;51.688;7.130;2023-03-11T11:55:32;3.37;;;0.70;;
15616;SDS011;7908;51.688;7.130;2023-03-11T11:58:03;3.70;;;0.80;;
15616;SDS011;7908;51.688;7.130;2023-03-11T12:00:40;4.33;;;1.00;;
15616;SDS011;7908;51.688;7.130;2023-03-11T12:03:27;4.17;;;0.80;;
15616;SDS011;7908;51.688;7.130;2023-03-11T12:06:13;4.23;;;1.00;;
15616;SDS011;7908;51.688;7.130;2023-03-11T12:08:50;3.77;;;0.87;;
15616;SDS011;7908;51.688;7.130;2023-03-11T12:11:28;2.43;;;0.60;;
15616;SDS011;7908;51.688;7.130;2023-03-11T12:14:03;2.47;;;0.73;;
15616;SDS011;7908;51.688;7.130;2023-03-11T12:16:41;2.17;;;0.53;;
15616;SDS011;7908;51.688;7.130;2023-03-11T12:19:15;1.10;;;0.60;;
15616;SDS011;7908;51.688;7.130;2023-03-11T12:22:00;3.20;;;0.63;;
15616;SDS011;7908;51.688;7.130;2023-03-11T12:24:56;3.60;;;0.70;;
15616;SDS011;7908;51.688;7.130;2023-03-11T12:27:48;2.57;;;0.60;;
15616;SDS011;7908;51.688;7.130;2023-03-11T12:30:22;2.67;;;0.60;;
15616;SDS011;7908;51.688;7.130;2023-03-11T12:32:56;2.97;;;0.83;;
15616;SDS011;7908;51.688;7.130;2023-03-11T12:35:29;1.50;;;0.60;;
15616;SDS011;7908;51.688;7.130;2023-03-11T12:38:06;4.03;;;1.10;;
15616;SDS011;7908;51.688;7.130;2023-03-11T12:47:00;1.53;;;0.60;;
15616;SDS011;7908;51.688;7.130;2023-03-11T12:49:35;1.93;;;0.50;;
15616;SDS011;7908;51.688;7.130;2023-03-11T12:52:23;6.23;;;0.70;;
15616;SDS011;7908;51.688;7.130;2023-03-11T12:57:57;3.70;;;1.07;;
15616;SDS011;7908;51.688;7.130;2023-03-11T13:00:40;1.80;;;0.70;;
15616;SDS011;7908;51.688;7.130;2023-03-11T13:03:26;2.53;;;0.80;;
15616;SDS011;7908;51.688;7.130;2023-03-11T13:06:36;2.27;;;0.80;;
15616;SDS011;7908;51.688;7.130;2023-03-11T13:09:27;4.63;;;0.73;;
15616;SDS011;7908;51.688;7.130;2023-03-11T13:11:57;4.53;;;0.60;;
15616;SDS011;7908;51.688;7.130;2023-03-11T13:14:27;2.37;;;0.60;;
15616;SDS011;7908;51.688;7.130;2023-03-11T13:17:22;3.63;;;0.70;;
15616;SDS011;7908;51.688;7.130;2023-03-11T13:19:53;1.90;;;0.60;;
15616;SDS011;7908;51.688;7.130;2023-03-11T13:22:41;3.53;;;0.60;;
15616;SDS011;7908;51.688;7.130;2023-03-11T13:25:40;1.93;;;0.50;;
15616;SDS011;7908;51.688;7.130;2023-03-11T13:28:15;4.87;;;0.70;;
15616;SDS011;7908;51.688;7.130;2023-03-11T13:30:58;2.50;;;0.50;;
15616;SDS011;7908;51.688;7.130;2023-03-11T13:33:47;3.83;;;0.73;;
15616;SDS011;7908;51.688;7.130;2023-03-11T13:36:22;4.47;;;0.70;;
15616;SDS011;7908;51.688;7.130;2023-03-11T13:39:10;3.27;;;0.60;;
15616;SDS011;7908;51.688;7.130;2023-03-11T13:41:59;1.50;;;0.80;;
15616;SDS011;7908;51.688;7.130;2023-03-11T13:44:32;9.07;;;4.50;;
15616;SDS011;7908;51.688;7.130;2023-03-11T13:47:06;4.63;;;2.30;;
15616;SDS011;7908;51.688;7.130;2023-03-11T13:49:41;6.03;;;1.50;;
15616;SDS011;7908;51.688;7.130;2023-03-11T13:52:21;4.07;;;1.00;;
15616;SDS011;7908;51.688;7.130;2023-03-11T13:54:56;2.10;;;0.70;;
15616;SDS011;7908;51.688;7.130;2023-03-11T13:57:30;3.83;;;0.80;;
15616;SDS011;7908;51.688;7.130;2023-03-11T14:00:05;2.63;;;0.80;;
15616;SDS011;7908;51.688;7.130;2023-03-11T14:02:42;2.97;;;0.60;;
15616;SDS011;7908;51.688;7.130;2023-03-11T14:05:18;2.83;;;0.50;;
15616;SDS011;7908;51.688;7.130;2023-03-11T14:07:50;3.07;;;0.70;;
15616;SDS011;7908;51.688;7.130;2023-03-11T14:10:29;1.43;;;0.50;;
15616;SDS011;7908;51.688;7.130;2023-03-11T14:13:06;3.50;;;2.20;;
15616;SDS011;7908;51.688;7.130;2023-03-11T14:15:44;5.40;;;3.23;;
15616;SDS011;7908;51.688;7.130;2023-03-11T14:18:26;7.97;;;4.37;;
15616;SDS011;7908;51.688;7.130;2023-03-11T14:21:04;3.20;;;1.13;;
15616;SDS011;7908;51.688;7.130;2023-03-11T14:23:39;2.30;;;0.73;;
15616;SDS011;7908;51.688;7.130;2023-03-11T14:26:13;2.53;;;0.90;;
15616;SDS011;7908;51.688;7.130;2023-03-11T14:28:48;2.60;;;0.60;;
15616;SDS011;7908;51.688;7.130;2023-03-11T14:31:23;3.90;;;0.80;;
15616;SDS011;7908;51.688;7.130;2023-03-11T14:33:58;2.10;;;0.60;;
15616;SDS011;7908;51.688;7.130;2023-03-11T14:36:39;3.27;;;0.50;;
15616;SDS011;7908;51.688;7.130;2023-03-11T14:39:28;2.77;;;0.57;;
15616;SDS011;7908;51.688;7.130;2023-03-11T14:42:00;2.20;;;0.60;;
15616;SDS011;7908;51.688;7.130;2023-03-11T14:44:33;2.77;;;0.57;;
15616;SDS011;7908;51.688;7.130;2023-03-11T14:47:07;3.80;;;0.80;;
15616;SDS011;7908;51.688;7.130;2023-03-11T14:49:39;2.37;;;0.57;;
15616;SDS011;7908;51.688;7.130;2023-03-11T14:52:12;1.53;;;0.40;;
15616;SDS011;7908;51.688;7.130;2023-03-11T14:54:46;1.60;;;0.47;;
15616;SDS011;7908;51.688;7.130;2023-03-11T14:57:21;3.53;;;0.80;;
15616;SDS011;7908;51.688;7.130;2023-03-11T14:59:55;3.33;;;0.50;;
15616;SDS011;7908;51.688;7.130;2023-03-11T15:02:36;2.30;;;0.63;;
15616;SDS011;7908;51.688;7.130;2023-03-11T15:05:16;2.63;;;0.40;;
15616;SDS011;7908;51.688;7.130;2023-03-11T15:07:48;3.93;;;0.70;;
15616;SDS011;7908;51.688;7.130;2023-03-11T15:10:24;4.03;;;0.50;;
15616;SDS011;7908;51.688;7.130;2023-03-11T15:13:04;1.67;;;0.47;;
15616;SDS011;7908;51.688;7.130;2023-03-11T15:15:35;2.30;;;0.70;;
15616;SDS011;7908;51.688;7.130;2023-03-11T15:18:16;4.33;;;0.60;;
15616;SDS011;7908;51.688;7.130;2023-03-11T15:20:59;2.43;;;0.70;;
15616;SDS011;7908;51.688;7.130;2023-03-11T15:23:31;3.87;;;0.70;;
15616;SDS011;7908;51.688;7.130;2023-03-11T15:26:02;6.47;;;1.07;;
15616;SDS011;7908;51.688;7.130;2023-03-11T15:28:34;3.80;;;0.80;;
15616;SDS011;7908;51.688;7.130;2023-03-11T15:31:13;4.13;;;0.80;;
15616;SDS011;7908;51.688;7.130;2023-03-11T15:33:44;3.47;;;0.80;;
15616;SDS011;7908;51.688;7.130;2023-03-11T15:36:28;7.17;;;1.03;;
15616;SDS011;7908;51.688;7.130;2023-03-11T15:39:10;3.17;;;0.80;;
15616;SDS011;7908;51.688;7.130;2023-03-11T15:41:42;3.57;;;1.23;;
15616;SDS011;7908;51.688;7.130;2023-03-11T15:47:02;2.13;;;0.70;;
15616;SDS011;7908;51.688;7.130;2023-03-11T15:49:32;2.97;;;0.77;;